createdAt,value
2023-03-06T00:02:27.456Z,99111.70
2023-03-06T00:07:29.260Z,99108.16
2023-03-06T00:12:31.650Z,99104.55
2023-03-06T00:17:33.631Z,99099.53
2023-03-06T00:22:35.537Z,99100.39
2023-03-06T00:27:37.384Z,99098.88
2023-03-06T00:32:39.163Z,99099.10
2023-03-06T00:37:41.448Z,99098.75
2023-03-06T00:42:43.325Z,99101.44
2023-03-06T00:47:45.095Z,99103.32
2023-03-06T00:52:46.974Z,99096.05
2023-03-06T00:57:48.845Z,99097.16
2023-03-06T01:02:50.827Z,99094.47
2023-03-06T01:07:52.699Z,99092.17
2023-03-06T01:12:55.472Z,99087.27
2023-03-06T01:17:57.173Z,99086.92
2023-03-06T01:22:59.352Z,99089.31
2023-03-06T01:28:01.125Z,99081.70
2023-03-06T01:33:02.899Z,99082.02
2023-03-06T01:38:04.777Z,99080.64
2023-03-06T01:43:28.676Z,99078.02
2023-03-06T01:48:30.753Z,99077.00
2023-03-06T01:53:32.946Z,99076.80
2023-03-06T01:58:35.644Z,99072.64
2023-03-06T02:03:38.742Z,99066.98
2023-03-06T02:08:40.619Z,99066.39
2023-03-06T02:13:45.083Z,99061.48
2023-03-06T02:18:47.140Z,99059.45
2023-03-06T02:24:15.643Z,99055.87
2023-03-06T02:29:24.194Z,99060.52
2023-03-06T02:34:25.948Z,99068.29
2023-03-06T02:39:30.789Z,99065.59
2023-03-06T02:44:35.684Z,99066.70
2023-03-06T02:49:37.311Z,99061.77
2023-03-06T02:54:39.490Z,99060.02
2023-03-06T02:59:41.265Z,99058.51
2023-03-06T03:04:43.172Z,99054.76
2023-03-06T03:09:45.009Z,99053.14
2023-03-06T03:14:48.324Z,99051.48
2023-03-06T03:19:50.200Z,99050.61
2023-03-06T03:24:51.945Z,99045.07
2023-03-06T03:29:57.033Z,99047.16
2023-03-06T03:34:58.714Z,99043.58
2023-03-06T03:40:00.784Z,99045.92
2023-03-06T03:45:03.134Z,99046.71
2023-03-06T03:50:05.561Z,99043.49
2023-03-06T03:55:08.258Z,99040.36
2023-03-06T04:00:15.560Z,99034.19
2023-03-06T04:05:18.253Z,99028.29
2023-03-06T04:10:20.234Z,99033.70
2023-03-06T04:15:23.031Z,99030.34
2023-03-06T04:20:25.620Z,99029.16
2023-03-06T04:25:27.396Z,99031.82
2023-03-06T04:30:29.276Z,99030.63
2023-03-06T04:35:31.812Z,99024.58
2023-03-06T04:40:36.129Z,99019.77
2023-03-06T04:45:38.118Z,99021.55
2023-03-06T04:50:40.166Z,99016.38
2023-03-06T04:55:42.556Z,99013.70
2023-03-06T05:00:44.595Z,99011.14
2023-03-06T05:05:46.609Z,99014.55
2023-03-06T05:10:55.648Z,99017.61
2023-03-06T05:16:06.919Z,99019.16
2023-03-06T05:21:09.030Z,99021.23
2023-03-06T05:26:13.294Z,99021.35
2023-03-06T05:31:16.160Z,99020.17
2023-03-06T05:36:18.052Z,99020.27
2023-03-06T05:41:19.920Z,99018.72
2023-03-06T05:46:22.490Z,99024.56
2023-03-06T05:51:26.348Z,99024.52
2023-03-06T05:56:28.126Z,99016.16
2023-03-06T06:01:29.994Z,99012.99
2023-03-06T06:06:31.961Z,99010.76
2023-03-06T06:11:33.715Z,99014.95
2023-03-06T06:16:36.043Z,99023.32
2023-03-06T06:21:37.909Z,99028.06
2023-03-06T06:26:40.494Z,99034.66
2023-03-06T06:31:42.266Z,99040.52
2023-03-06T06:36:44.252Z,99038.36
2023-03-06T06:42:02.319Z,99039.80
2023-03-06T06:47:22.379Z,99035.91
2023-03-06T06:52:25.269Z,99035.49
2023-03-06T06:57:27.190Z,99036.36
2023-03-06T07:02:28.963Z,99037.52
2023-03-06T07:07:33.613Z,99039.16
2023-03-06T07:12:36.816Z,99037.83
2023-03-06T07:17:39.150Z,99039.73
2023-03-06T07:22:50.750Z,99043.11
2023-03-06T07:27:54.727Z,99043.25
2023-03-06T07:32:58.346Z,99044.32
2023-03-06T07:38:00.636Z,99045.08
2023-03-06T07:43:19.018Z,99044.62
2023-03-06T07:48:21.284Z,99050.22
2023-03-06T07:53:24.287Z,99055.79
2023-03-06T07:58:26.474Z,99054.45
2023-03-06T08:03:28.164Z,99051.23
2023-03-06T08:08:30.020Z,99049.48
2023-03-06T08:13:32.307Z,99050.42
2023-03-06T08:18:35.589Z,99054.55
2023-03-06T08:23:37.601Z,99056.70
2023-03-06T08:28:39.894Z,99058.54
2023-03-06T08:33:42.266Z,99054.02
2023-03-06T08:38:44.367Z,99053.53
2023-03-06T08:43:47.351Z,99053.53
2023-03-06T08:48:49.141Z,99055.88
2023-03-06T08:53:51.517Z,99058.59
2023-03-06T08:58:55.271Z,99058.42
2023-03-06T09:04:03.941Z,99056.80
2023-03-06T09:09:07.076Z,99057.30
2023-03-06T09:14:09.561Z,99054.58
2023-03-06T09:19:11.750Z,99053.95
2023-03-06T09:24:13.628Z,99056.41
2023-03-06T09:29:16.698Z,99055.42
2023-03-06T09:34:18.624Z,99051.89
2023-03-06T09:39:20.488Z,99049.59
2023-03-06T09:44:29.033Z,99048.52
2023-03-06T09:50:05.611Z,99051.61
2023-03-06T09:55:13.537Z,99046.39
2023-03-06T10:00:19.063Z,99039.00
2023-03-06T10:05:25.685Z,99032.92
2023-03-06T10:10:58.479Z,99025.23
2023-03-06T10:16:29.347Z,99027.73
2023-03-06T10:21:51.485Z,99020.49
2023-03-06T10:27:08.937Z,99018.92
2023-03-06T10:32:24.446Z,99009.98
2023-03-06T10:37:30.413Z,99002.52
2023-03-06T10:42:34.324Z,98997.36
2023-03-06T10:47:37.828Z,98997.77
2023-03-06T10:52:39.819Z,98998.14
2023-03-06T10:57:41.901Z,98993.83
2023-03-06T11:02:43.679Z,98992.15
2023-03-06T11:07:59.060Z,98989.52
2023-03-06T11:13:07.190Z,98981.41
2023-03-06T11:18:09.168Z,98980.80
2023-03-06T11:23:26.407Z,98978.00
2023-03-06T11:28:32.253Z,98975.80
2023-03-06T11:33:42.007Z,98976.77
2023-03-06T11:38:50.879Z,98978.08
2023-03-06T11:44:00.843Z,98970.35
2023-03-06T11:49:26.265Z,98973.48
2023-03-06T11:54:28.044Z,98971.98
2023-03-06T12:00:01.052Z,98974.40
2023-03-06T12:05:12.454Z,98978.08
2023-03-06T12:10:24.482Z,98973.70
2023-03-06T12:15:50.511Z,98971.58
2023-03-06T12:21:23.413Z,98974.31
2023-03-06T12:26:56.416Z,98973.52
2023-03-06T12:32:01.442Z,98968.95
2023-03-06T12:37:38.572Z,98967.92
2023-03-06T12:42:55.600Z,98968.51
2023-03-06T12:47:58.814Z,98967.53
2023-03-06T12:53:04.176Z,98970.30
2023-03-06T12:58:27.759Z,98966.10
2023-03-06T13:03:35.059Z,98962.20
2023-03-06T13:09:04.900Z,98961.17
2023-03-06T13:14:42.276Z,98954.39
2023-03-06T13:20:16.398Z,98952.27
2023-03-06T13:25:30.211Z,98952.52
2023-03-06T13:30:35.736Z,98944.13
2023-03-06T13:35:40.506Z,98943.75
2023-03-06T13:40:42.473Z,98947.90
2023-03-06T13:45:46.762Z,98943.66
2023-03-06T13:50:49.096Z,98939.30
2023-03-06T13:56:03.971Z,98938.45
2023-03-06T14:01:24.572Z,98938.56
2023-03-06T14:06:37.012Z,98935.35
2023-03-06T14:11:45.748Z,98936.61
2023-03-06T14:16:50.852Z,98937.23
2023-03-06T14:21:57.388Z,98937.19
2023-03-06T14:27:00.924Z,98931.19
2023-03-06T14:32:05.771Z,98931.45
2023-03-06T14:37:20.530Z,98928.91
2023-03-06T14:42:27.737Z,98923.77
2023-03-06T14:47:32.460Z,98918.86
2023-03-06T14:52:35.480Z,98920.05
2023-03-06T14:57:37.970Z,98920.95
2023-03-06T15:02:39.986Z,98921.05
2023-03-06T15:07:42.438Z,98921.76
2023-03-06T15:12:44.521Z,98919.98
2023-03-06T15:17:48.137Z,98921.20
2023-03-06T15:22:50.633Z,98921.67
2023-03-06T15:27:56.094Z,98924.06
2023-03-06T15:33:19.267Z,98924.04
2023-03-06T15:38:31.273Z,98920.68
2023-03-06T15:43:38.987Z,98920.55
2023-03-06T15:48:51.462Z,98920.73
2023-03-06T15:53:59.731Z,98918.20
2023-03-06T15:59:32.654Z,98914.44
2023-03-06T16:04:34.550Z,98916.20
2023-03-06T16:09:36.914Z,98918.34
2023-03-06T16:14:39.611Z,98922.25
2023-03-06T16:19:41.687Z,98923.95
2023-03-06T16:24:43.775Z,98921.20
2023-03-06T16:29:46.368Z,98923.03
2023-03-06T16:34:48.342Z,98920.02
2023-03-06T16:39:50.524Z,98914.90
2023-03-06T16:44:52.399Z,98921.09
2023-03-06T16:49:57.531Z,98917.78
2023-03-06T16:54:59.692Z,98914.15
2023-03-06T17:00:01.920Z,98912.52
2023-03-06T17:05:07.034Z,98914.70
2023-03-06T17:10:13.812Z,98922.13
2023-03-06T17:15:22.920Z,98924.08
2023-03-06T17:20:27.049Z,98928.43
2023-03-06T17:25:29.544Z,98931.09
2023-03-06T17:30:35.682Z,98930.84
2023-03-06T17:35:39.349Z,98930.44
2023-03-06T17:40:41.217Z,98930.42
2023-03-06T17:45:43.408Z,98932.27
2023-03-06T17:50:53.683Z,98929.98
2023-03-06T17:55:59.512Z,98930.81
2023-03-06T18:01:17.429Z,98932.45
2023-03-06T18:06:22.038Z,98930.04
2023-03-06T18:11:24.317Z,98931.23
2023-03-06T18:16:26.653Z,98928.46
2023-03-06T18:21:28.893Z,98932.02
2023-03-06T18:26:33.020Z,98936.05
2023-03-06T18:31:41.635Z,98934.34
2023-03-06T18:36:46.813Z,98937.05
2023-03-06T18:41:49.212Z,98942.92
2023-03-06T18:46:52.204Z,98945.34
2023-03-06T18:51:55.529Z,98942.23
2023-03-06T18:56:58.619Z,98938.96
2023-03-06T19:02:02.887Z,98936.09
2023-03-06T19:07:06.677Z,98938.55
2023-03-06T19:12:11.234Z,98940.47
2023-03-06T19:17:15.268Z,98936.89
2023-03-06T19:22:22.040Z,98933.64
2023-03-06T19:27:26.074Z,98934.66
2023-03-06T19:32:28.561Z,98936.05
2023-03-06T19:37:32.084Z,98932.81
2023-03-06T19:42:34.169Z,98929.62
2023-03-06T19:47:36.550Z,98932.08
2023-03-06T19:52:38.992Z,98930.88
2023-03-06T19:57:41.632Z,98931.33
2023-03-06T20:02:43.406Z,98932.86
2023-03-06T20:07:47.975Z,98937.15
2023-03-06T20:12:50.539Z,98933.77
2023-03-06T20:17:52.825Z,98936.45
2023-03-06T20:22:54.902Z,98944.20
2023-03-06T20:27:56.882Z,98944.36
2023-03-06T20:32:59.164Z,98940.85
2023-03-06T20:38:01.146Z,98942.13
2023-03-06T20:43:03.532Z,98941.02
2023-03-06T20:48:06.449Z,98937.38
2023-03-06T20:53:10.571Z,98940.64
2023-03-06T20:58:13.252Z,98938.65
2023-03-06T21:03:17.088Z,98938.74
2023-03-06T21:08:19.064Z,98936.05
2023-03-06T21:13:21.149Z,98939.22
2023-03-06T21:18:23.023Z,98935.95
2023-03-06T21:23:24.901Z,98935.71
2023-03-06T21:28:27.496Z,98934.89
2023-03-06T21:33:29.285Z,98934.93
2023-03-06T21:38:31.790Z,98935.40
2023-03-06T21:43:33.756Z,98939.77
2023-03-06T21:48:35.932Z,98941.76
2023-03-06T21:53:41.196Z,98941.23
2023-03-06T21:58:44.920Z,98940.46
2023-03-06T22:03:47.153Z,98942.05
2023-03-06T22:08:49.819Z,98942.04
2023-03-06T22:13:55.262Z,98940.25
2023-03-06T22:18:57.560Z,98945.27
2023-03-06T22:23:59.344Z,98942.13
2023-03-06T22:29:01.080Z,98943.91
2023-03-06T22:34:03.888Z,98940.23
2023-03-06T22:39:05.552Z,98939.59
2023-03-06T22:44:07.442Z,98937.20
2023-03-06T22:49:11.244Z,98937.98
2023-03-06T22:54:12.949Z,98936.63
2023-03-06T22:59:14.790Z,98936.23
2023-03-06T23:04:16.785Z,98932.36
2023-03-06T23:09:21.213Z,98930.49
2023-03-06T23:14:23.012Z,98932.90
2023-03-06T23:19:25.376Z,98934.41
2023-03-06T23:24:28.383Z,98934.02
2023-03-06T23:29:30.155Z,98937.48
2023-03-06T23:34:31.940Z,98932.33
2023-03-06T23:39:33.605Z,98932.84
2023-03-06T23:44:36.401Z,98931.20
2023-03-06T23:49:39.508Z,98933.88
2023-03-06T23:54:41.178Z,98936.35
2023-03-06T23:59:43.875Z,98935.62
